createdAt,value
2022-09-28T00:00:48.063Z,98540.50
2022-09-28T00:03:14.866Z,98538.86
2022-09-28T00:05:41.735Z,98535.84
2022-09-28T00:08:08.554Z,98539.10
2022-09-28T00:10:35.284Z,98539.86
2022-09-28T00:13:02.080Z,98543.64
2022-09-28T00:15:29.373Z,98543.32
2022-09-28T00:17:56.227Z,98547.65
2022-09-28T00:20:23.071Z,98550.48
2022-09-28T00:22:50.012Z,98550.77
2022-09-28T00:25:17.230Z,98537.35
2022-09-28T00:27:49.489Z,98536.83
2022-09-28T00:30:16.610Z,98534.66
2022-09-28T00:32:44.560Z,98536.70
2022-09-28T00:35:11.913Z,98533.70
2022-09-28T00:37:42.185Z,98525.67
2022-09-28T00:40:18.683Z,98532.16
2022-09-28T00:42:46.213Z,98538.69
2022-09-28T00:45:14.439Z,98543.64
2022-09-28T00:47:43.983Z,98547.64
2022-09-28T00:50:23.423Z,98549.77
2022-09-28T00:53:18.155Z,98547.71
2022-09-28T00:55:45.932Z,98549.29
2022-09-28T00:58:20.963Z,98548.91
2022-09-28T01:00:49.730Z,98554.29
2022-09-28T01:03:17.856Z,98554.42
2022-09-28T01:05:47.412Z,98558.22
2022-09-28T01:08:17.084Z,98556.20
2022-09-28T01:10:44.091Z,98554.90
2022-09-28T01:13:13.060Z,98556.50
2022-09-28T01:16:04.749Z,98553.17
2022-09-28T01:18:44.267Z,98549.67
2022-09-28T01:21:15.364Z,98546.81
2022-09-28T01:23:54.904Z,98544.55
2022-09-28T01:26:48.089Z,98548.95
2022-09-28T01:29:40.386Z,98539.88
2022-09-28T01:32:19.078Z,98544.80
2022-09-28T01:34:57.740Z,98540.97
2022-09-28T01:37:36.293Z,98533.85
2022-09-28T01:40:07.320Z,98533.65
2022-09-28T01:42:38.084Z,98533.05
2022-09-28T01:45:10.765Z,98532.88
2022-09-28T01:47:41.085Z,98535.05
2022-09-28T01:50:16.458Z,98531.77
2022-09-28T01:52:54.788Z,98534.25
2022-09-28T01:55:37.638Z,98535.32
2022-09-28T01:58:19.010Z,98534.18
2022-09-28T02:00:54.021Z,98524.10
2022-09-28T02:03:43.165Z,98522.10
2022-09-28T02:06:18.100Z,98521.59
2022-09-28T02:09:13.507Z,98526.04
2022-09-28T02:11:49.039Z,98528.08
2022-09-28T02:14:18.376Z,98525.38
2022-09-28T02:16:49.434Z,98527.64
2022-09-28T02:19:19.810Z,98530.62
2022-09-28T02:22:00.262Z,98538.64
2022-09-28T02:24:42.887Z,98539.76
2022-09-28T02:27:21.925Z,98542.34
2022-09-28T02:29:49.734Z,98542.81
2022-09-28T02:32:19.848Z,98540.98
2022-09-28T02:34:47.078Z,98540.06
2022-09-28T02:37:13.956Z,98536.46
2022-09-28T02:39:40.832Z,98533.20
2022-09-28T02:42:24.284Z,98535.17
2022-09-28T02:45:09.195Z,98534.63
2022-09-28T02:47:50.820Z,98534.92
2022-09-28T02:50:20.577Z,98530.89
2022-09-28T02:53:26.492Z,98527.02
2022-09-28T02:56:30.759Z,98528.98
2022-09-28T02:59:20.050Z,98534.51
2022-09-28T03:01:53.983Z,98532.73
2022-09-28T03:04:39.707Z,98529.63
2022-09-28T03:07:15.414Z,98533.64
2022-09-28T03:09:55.712Z,98531.21
2022-09-28T03:12:24.830Z,98532.60
2022-09-28T03:15:14.418Z,98529.39
2022-09-28T03:17:41.696Z,98527.42
2022-09-28T03:20:10.359Z,98531.55
2022-09-28T03:22:38.075Z,98532.48
2022-09-28T03:25:06.853Z,98530.58
2022-09-28T03:27:34.830Z,98529.75
2022-09-28T03:30:02.132Z,98530.91
2022-09-28T03:32:29.415Z,98530.92
2022-09-28T03:34:56.259Z,98534.14
2022-09-28T03:37:23.494Z,98534.11
2022-09-28T03:39:50.402Z,98535.86
2022-09-28T03:42:17.227Z,98531.59
2022-09-28T03:44:46.832Z,98534.48
2022-09-28T03:47:14.338Z,98525.61
2022-09-28T03:49:41.043Z,98530.42
2022-09-28T03:52:09.037Z,98530.31
2022-09-28T03:54:37.853Z,98530.39
2022-09-28T03:57:05.156Z,98528.89
2022-09-28T03:59:32.136Z,98526.88
2022-09-28T04:01:59.035Z,98529.79
2022-09-28T04:04:25.786Z,98531.55
2022-09-28T04:06:52.483Z,98529.79
2022-09-28T04:09:19.472Z,98530.69
2022-09-28T04:12:02.820Z,98530.33
2022-09-28T04:14:30.085Z,98535.33
2022-09-28T04:16:57.001Z,98535.28
2022-09-28T04:19:26.875Z,98535.20
2022-09-28T04:22:09.365Z,98535.81
2022-09-28T04:24:36.227Z,98540.86
2022-09-28T04:27:21.572Z,98541.91
2022-09-28T04:29:49.001Z,98549.15
2022-09-28T04:32:16.659Z,98545.69
2022-09-28T04:34:44.424Z,98543.45
2022-09-28T04:37:12.344Z,98540.02
2022-09-28T04:39:43.948Z,98537.44
2022-09-28T04:42:13.625Z,98534.80
2022-09-28T04:44:40.565Z,98537.14
2022-09-28T04:47:09.133Z,98538.04
2022-09-28T04:50:07.720Z,98540.30
2022-09-28T04:52:37.974Z,98545.48
2022-09-28T04:55:06.525Z,98544.76
2022-09-28T04:57:35.766Z,98540.60
2022-09-28T05:00:03.121Z,98538.24
2022-09-28T05:02:31.597Z,98541.71
2022-09-28T05:05:30.943Z,98539.88
2022-09-28T05:08:20.940Z,98540.11
2022-09-28T05:10:47.798Z,98548.21
2022-09-28T05:13:17.549Z,98545.71
2022-09-28T05:15:44.311Z,98546.31
2022-09-28T05:18:11.157Z,98542.86
2022-09-28T05:20:47.913Z,98542.44
2022-09-28T05:23:15.757Z,98543.75
2022-09-28T05:25:45.575Z,98547.58
2022-09-28T05:28:28.700Z,98549.92
2022-09-28T05:31:14.934Z,98551.39
2022-09-28T05:34:00.750Z,98557.98
2022-09-28T05:36:28.221Z,98561.20
2022-09-28T05:38:55.097Z,98565.87
2022-09-28T05:41:21.923Z,98555.90
2022-09-28T05:43:48.836Z,98555.30
2022-09-28T05:46:15.745Z,98556.08
2022-09-28T05:48:42.721Z,98555.84
2022-09-28T05:51:10.428Z,98558.64
2022-09-28T05:53:37.323Z,98565.52
2022-09-28T05:56:04.751Z,98562.61
2022-09-28T05:58:33.103Z,98566.33
2022-09-28T06:01:00.006Z,98572.16
2022-09-28T06:03:27.466Z,98570.48
2022-09-28T06:05:54.503Z,98579.14
2022-09-28T06:08:21.981Z,98580.88
2022-09-28T06:11:00.796Z,98584.58
2022-09-28T06:13:28.389Z,98586.40
2022-09-28T06:15:55.164Z,98584.94
2022-09-28T06:18:21.914Z,98589.14
2022-09-28T06:21:11.034Z,98584.65
2022-09-28T06:23:48.155Z,98583.44
2022-09-28T06:26:17.037Z,98582.71
2022-09-28T06:28:44.813Z,98587.48
2022-09-28T06:31:12.386Z,98588.06
2022-09-28T06:33:49.121Z,98586.89
2022-09-28T06:36:17.519Z,98590.55
2022-09-28T06:38:45.284Z,98594.38
2022-09-28T06:41:13.716Z,98593.05
2022-09-28T06:43:41.468Z,98591.73
2022-09-28T06:46:27.364Z,98586.10
2022-09-28T06:49:29.394Z,98585.52
2022-09-28T06:52:15.099Z,98587.42
2022-09-28T06:55:11.487Z,98589.77
2022-09-28T06:57:43.239Z,98592.39
2022-09-28T07:00:10.909Z,98593.02
2022-09-28T07:02:37.940Z,98590.95
2022-09-28T07:05:16.994Z,98599.08
2022-09-28T07:08:06.323Z,98602.44
2022-09-28T07:10:56.497Z,98608.92
2022-09-28T07:13:50.787Z,98612.13
2022-09-28T07:16:25.766Z,98614.04
2022-09-28T07:18:54.106Z,98617.05
2022-09-28T07:21:29.247Z,98614.50
2022-09-28T07:24:00.134Z,98621.02
2022-09-28T07:26:56.265Z,98615.45
2022-09-28T07:29:35.874Z,98618.98
2022-09-28T07:32:21.787Z,98612.41
2022-09-28T07:34:59.108Z,98611.39
2022-09-28T07:38:08.326Z,98611.54
2022-09-28T07:40:55.295Z,98609.96
2022-09-28T07:43:22.751Z,98609.98
2022-09-28T07:45:54.323Z,98612.49
2022-09-28T07:48:22.184Z,98615.63
2022-09-28T07:51:21.387Z,98623.91
2022-09-28T07:54:15.730Z,98622.98
2022-09-28T07:57:01.223Z,98628.82
2022-09-28T07:59:40.365Z,98632.08
2022-09-28T08:02:25.924Z,98631.77
2022-09-28T08:04:53.666Z,98634.11
2022-09-28T08:07:23.879Z,98630.48
2022-09-28T08:09:57.130Z,98635.57
2022-09-28T08:12:26.550Z,98638.94
2022-09-28T08:15:02.212Z,98644.30
2022-09-28T08:17:52.736Z,98642.46
2022-09-28T08:20:39.913Z,98643.52
2022-09-28T08:23:09.114Z,98638.52
2022-09-28T08:25:38.027Z,98644.26
2022-09-28T08:28:07.628Z,98641.62
2022-09-28T08:30:40.598Z,98642.27
2022-09-28T08:33:25.942Z,98641.26
2022-09-28T08:36:12.936Z,98639.52
2022-09-28T08:38:58.541Z,98649.35
2022-09-28T08:42:02.316Z,98646.77
2022-09-28T08:44:57.356Z,98643.34
2022-09-28T08:48:15.360Z,98643.77
2022-09-28T08:51:11.071Z,98639.67
2022-09-28T08:54:01.127Z,98635.75
2022-09-28T08:56:44.974Z,98637.29
2022-09-28T08:59:21.392Z,98636.10
2022-09-28T09:02:00.526Z,98645.62
2022-09-28T09:04:27.806Z,98647.70
2022-09-28T09:07:18.573Z,98647.67
2022-09-28T09:10:36.557Z,98646.44
2022-09-28T09:13:38.476Z,98650.50
2022-09-28T09:16:14.981Z,98645.61
2022-09-28T09:20:01.192Z,98639.73
2022-09-28T09:22:58.934Z,98640.67
2022-09-28T09:25:55.099Z,98641.67
2022-09-28T09:28:43.923Z,98645.44
2022-09-28T09:31:11.255Z,98646.91
2022-09-28T09:33:52.603Z,98645.59
2022-09-28T09:37:13.651Z,98644.80
2022-09-28T09:40:03.274Z,98649.65
2022-09-28T09:43:01.542Z,98645.02
2022-09-28T09:46:16.896Z,98643.91
2022-09-28T09:49:20.840Z,98647.52
2022-09-28T09:52:10.313Z,98648.54
2022-09-28T09:54:46.547Z,98651.71
2022-09-28T09:57:39.956Z,98651.38
2022-09-28T10:00:17.655Z,98652.45
2022-09-28T10:02:51.087Z,98654.86
2022-09-28T10:05:31.073Z,98660.61
2022-09-28T10:08:16.249Z,98664.25
2022-09-28T10:10:53.761Z,98662.98
2022-09-28T10:13:20.752Z,98663.62
2022-09-28T10:15:49.143Z,98668.70
2022-09-28T10:18:22.526Z,98667.63
2022-09-28T10:21:28.959Z,98667.05
2022-09-28T10:24:05.200Z,98664.61
2022-09-28T10:26:39.402Z,98659.20
2022-09-28T10:29:17.812Z,98668.94
2022-09-28T10:31:48.973Z,98667.33
2022-09-28T10:34:29.705Z,98673.95
2022-09-28T10:37:03.559Z,98674.41
2022-09-28T10:39:45.966Z,98676.53
2022-09-28T10:42:19.303Z,98676.25
2022-09-28T10:45:07.866Z,98675.10
2022-09-28T10:47:37.090Z,98673.05
2022-09-28T10:50:24.035Z,98673.41
2022-09-28T10:53:12.796Z,98675.46
2022-09-28T10:56:01.532Z,98676.06
2022-09-28T10:58:42.123Z,98678.49
2022-09-28T11:01:20.415Z,98677.80
2022-09-28T11:04:02.627Z,98671.98
2022-09-28T11:06:33.153Z,98677.63
2022-09-28T11:09:03.088Z,98676.04
2022-09-28T11:11:32.115Z,98674.42
2022-09-28T11:14:03.947Z,98664.59
2022-09-28T11:16:36.867Z,98661.73
2022-09-28T11:19:25.463Z,98661.10
2022-09-28T11:21:52.401Z,98655.86
2022-09-28T11:24:25.669Z,98656.23
2022-09-28T11:26:57.250Z,98660.39
2022-09-28T11:29:47.091Z,98662.85
2022-09-28T11:32:22.024Z,98659.14
2022-09-28T11:35:16.765Z,98661.61
2022-09-28T11:37:50.780Z,98660.56
2022-09-28T11:40:37.949Z,98661.11
2022-09-28T11:43:37.378Z,98664.34
2022-09-28T11:46:17.050Z,98658.85
2022-09-28T11:48:49.324Z,98661.35
2022-09-28T11:51:27.478Z,98658.29
2022-09-28T11:54:06.779Z,98656.02
2022-09-28T11:56:41.934Z,98662.02
2022-09-28T11:59:11.409Z,98665.92
2022-09-28T12:02:01.199Z,98664.35
2022-09-28T12:04:45.730Z,98666.84
2022-09-28T12:07:24.325Z,98673.21
2022-09-28T12:10:10.382Z,98672.52
2022-09-28T12:12:46.303Z,98675.33
2022-09-28T12:15:28.736Z,98678.33
2022-09-28T12:18:12.390Z,98685.85
2022-09-28T12:20:46.444Z,98680.23
2022-09-28T12:23:24.484Z,98679.81
2022-09-28T12:26:04.817Z,98679.73
2022-09-28T12:28:53.698Z,98680.61
2022-09-28T12:31:28.167Z,98679.47
2022-09-28T12:33:55.022Z,98678.17
2022-09-28T12:36:47.634Z,98678.44
2022-09-28T12:39:57.413Z,98682.81
2022-09-28T12:43:01.064Z,98684.59
2022-09-28T12:45:53.177Z,98679.27
2022-09-28T12:49:21.628Z,98673.21
2022-09-28T12:51:42.086Z,98672.94
2022-09-28T12:54:55.768Z,98669.24
2022-09-28T12:57:34.513Z,98667.01
2022-09-28T13:00:04.864Z,98670.42
2022-09-28T13:02:37.381Z,98671.02
2022-09-28T13:05:32.331Z,98673.30
2022-09-28T13:08:13.926Z,98670.91
2022-09-28T13:10:47.187Z,98673.09
2022-09-28T13:13:16.784Z,98675.92
2022-09-28T13:15:52.950Z,98671.47
2022-09-28T13:18:35.531Z,98673.41
2022-09-28T13:21:06.439Z,98667.09
2022-09-28T13:23:44.135Z,98664.56
2022-09-28T13:26:17.558Z,98658.11
2022-09-28T13:28:47.234Z,98657.81
2022-09-28T13:31:21.143Z,98658.38
2022-09-28T13:33:50.599Z,98658.55
2022-09-28T13:36:29.067Z,98656.58
2022-09-28T13:38:59.801Z,98655.40
2022-09-28T13:41:50.993Z,98653.08
2022-09-28T13:44:32.246Z,98647.21
2022-09-28T13:47:18.799Z,98647.88
2022-09-28T13:50:14.867Z,98649.50
2022-09-28T13:53:07.812Z,98652.02
2022-09-28T13:56:00.796Z,98652.94
2022-09-28T13:58:36.823Z,98654.71
2022-09-28T14:01:16.263Z,98658.13
2022-09-28T14:04:11.787Z,98654.79
2022-09-28T14:06:44.500Z,98651.33
2022-09-28T14:09:41.272Z,98648.02
2022-09-28T14:12:34.380Z,98648.44
2022-09-28T14:15:02.705Z,98648.63
2022-09-28T14:17:50.330Z,98649.63
2022-09-28T14:20:20.040Z,98643.73
2022-09-28T14:23:01.351Z,98646.36
2022-09-28T14:25:32.138Z,98644.63
2022-09-28T14:28:29.631Z,98647.20
2022-09-28T14:30:59.783Z,98648.19
2022-09-28T14:33:32.728Z,98645.95
2022-09-28T14:36:07.098Z,98639.89
2022-09-28T14:39:05.961Z,98644.48
2022-09-28T14:41:34.787Z,98648.48
2022-09-28T14:44:03.103Z,98652.92
2022-09-28T14:46:33.627Z,98651.38
2022-09-28T14:49:25.466Z,98652.84
2022-09-28T14:51:56.023Z,98652.04
2022-09-28T14:54:26.703Z,98651.30
2022-09-28T14:56:53.463Z,98651.96
2022-09-28T14:59:37.923Z,98650.42
2022-09-28T15:02:26.278Z,98654.96
2022-09-28T15:05:02.757Z,98658.48
2022-09-28T15:07:43.596Z,98656.71
2022-09-28T15:10:33.447Z,98661.25
2022-09-28T15:13:07.050Z,98661.86
2022-09-28T15:15:40.447Z,98664.30
2022-09-28T15:18:19.311Z,98661.61
2022-09-28T15:20:50.270Z,98661.73
2022-09-28T15:23:37.594Z,98665.54
2022-09-28T15:26:09.197Z,98667.97
2022-09-28T15:28:43.932Z,98667.90
2022-09-28T15:31:18.552Z,98669.70
2022-09-28T15:34:04.181Z,98666.84
2022-09-28T15:36:46.667Z,98662.05
2022-09-28T15:39:28.759Z,98654.02
2022-09-28T15:41:55.969Z,98647.44
2022-09-28T15:44:37.189Z,98642.87
2022-09-28T15:47:16.674Z,98653.02
2022-09-28T15:50:01.395Z,98655.85
2022-09-28T15:52:40.251Z,98652.77
2022-09-28T15:55:22.397Z,98643.03
2022-09-28T15:57:49.990Z,98636.63
2022-09-28T16:00:31.674Z,98642.45
2022-09-28T16:03:18.081Z,98651.99
2022-09-28T16:05:52.568Z,98651.72
2022-09-28T16:08:24.753Z,98656.67
2022-09-28T16:11:07.092Z,98656.64
2022-09-28T16:13:35.054Z,98661.41
2022-09-28T16:16:01.922Z,98661.08
2022-09-28T16:18:31.284Z,98659.77
2022-09-28T16:21:26.782Z,98659.68
2022-09-28T16:23:56.002Z,98653.83
2022-09-28T16:26:39.129Z,98646.98
2022-09-28T16:29:32.793Z,98638.77
2022-09-28T16:32:25.167Z,98632.02
2022-09-28T16:35:07.848Z,98633.55
2022-09-28T16:37:35.113Z,98636.45
2022-09-28T16:40:02.406Z,98641.98
2022-09-28T16:42:29.738Z,98642.80
2022-09-28T16:44:56.779Z,98643.11
2022-09-28T16:47:24.194Z,98636.68
2022-09-28T16:49:51.882Z,98634.69
2022-09-28T16:52:38.700Z,98629.83
2022-09-28T16:55:38.798Z,98625.89
2022-09-28T16:58:04.839Z,98632.32
2022-09-28T17:00:32.608Z,98638.17
2022-09-28T17:02:59.866Z,98649.31
2022-09-28T17:05:26.802Z,98653.86
2022-09-28T17:08:01.527Z,98651.62
2022-09-28T17:10:55.703Z,98641.19
2022-09-28T17:13:34.311Z,98631.64
2022-09-28T17:16:04.586Z,98631.77
2022-09-28T17:18:32.336Z,98634.59
2022-09-28T17:21:03.615Z,98631.85
2022-09-28T17:23:30.935Z,98626.49
2022-09-28T17:25:59.820Z,98628.07
2022-09-28T17:28:32.710Z,98625.85
2022-09-28T17:30:59.628Z,98627.61
2022-09-28T17:33:26.543Z,98626.05
2022-09-28T17:36:00.372Z,98622.90
2022-09-28T17:38:28.162Z,98629.54
2022-09-28T17:40:55.190Z,98627.92
2022-09-28T17:43:22.707Z,98634.63
2022-09-28T17:45:50.896Z,98638.66
2022-09-28T17:48:23.115Z,98644.18
2022-09-28T17:50:50.850Z,98646.89
2022-09-28T17:53:17.728Z,98655.00
2022-09-28T17:55:44.570Z,98654.17
2022-09-28T17:58:22.432Z,98656.72
2022-09-28T18:00:51.651Z,98663.28
2022-09-28T18:03:23.422Z,98662.18
2022-09-28T18:05:59.482Z,98665.12
2022-09-28T18:08:26.238Z,98666.25
2022-09-28T18:10:54.964Z,98674.34
2022-09-28T18:13:21.871Z,98682.89
2022-09-28T18:15:51.599Z,98686.94
2022-09-28T18:18:18.836Z,98685.82
2022-09-28T18:20:46.215Z,98697.58
2022-09-28T18:23:13.147Z,98701.84
2022-09-28T18:25:44.743Z,98710.20
2022-09-28T18:28:15.506Z,98721.77
2022-09-28T18:30:44.956Z,98720.44
2022-09-28T18:33:13.816Z,98725.08
2022-09-28T18:35:41.565Z,98725.29
2022-09-28T18:38:08.627Z,98730.04
2022-09-28T18:40:36.856Z,98737.21
2022-09-28T18:43:04.139Z,98742.27
2022-09-28T18:45:31.818Z,98749.20
2022-09-28T18:48:00.068Z,98748.60
2022-09-28T18:50:27.125Z,98748.87
2022-09-28T18:52:54.330Z,98749.69
2022-09-28T18:55:21.411Z,98756.83
2022-09-28T18:57:48.565Z,98755.01
2022-09-28T19:00:15.644Z,98757.15
2022-09-28T19:02:42.673Z,98761.53
2022-09-28T19:05:09.950Z,98763.10
2022-09-28T19:07:36.907Z,98765.34
2022-09-28T19:10:04.511Z,98762.45
2022-09-28T19:12:32.559Z,98765.60
2022-09-28T19:15:00.029Z,98763.62
2022-09-28T19:17:26.932Z,98758.55
2022-09-28T19:19:53.804Z,98752.58
2022-09-28T19:22:20.981Z,98749.15
2022-09-28T19:24:47.841Z,98744.54
2022-09-28T19:27:14.829Z,98737.78
2022-09-28T19:29:41.667Z,98726.90
2022-09-28T19:32:08.482Z,98724.41
2022-09-28T19:34:35.630Z,98716.86
2022-09-28T19:37:04.179Z,98702.52
2022-09-28T19:39:31.279Z,98705.70
2022-09-28T19:42:02.486Z,98709.75
2022-09-28T19:44:31.547Z,98704.97
2022-09-28T19:47:10.303Z,98704.05
2022-09-28T19:49:40.214Z,98708.89
2022-09-28T19:52:23.229Z,98702.66
2022-09-28T19:54:57.410Z,98700.09
2022-09-28T19:57:34.101Z,98692.14
2022-09-28T20:00:03.484Z,98689.11
2022-09-28T20:02:34.955Z,98691.84
2022-09-28T20:05:02.133Z,98696.67
2022-09-28T20:07:33.182Z,98702.23
2022-09-28T20:10:00.344Z,98698.91
2022-09-28T20:12:27.165Z,98698.88
2022-09-28T20:14:54.548Z,98703.49
2022-09-28T20:17:22.195Z,98707.96
2022-09-28T20:19:51.950Z,98705.76
2022-09-28T20:22:20.127Z,98709.58
2022-09-28T20:24:47.376Z,98710.13
2022-09-28T20:27:14.368Z,98708.84
2022-09-28T20:29:43.186Z,98715.92
2022-09-28T20:32:11.933Z,98714.80
2022-09-28T20:34:38.885Z,98715.38
2022-09-28T20:37:05.820Z,98711.02
2022-09-28T20:39:32.603Z,98704.92
2022-09-28T20:41:59.599Z,98705.51
2022-09-28T20:44:26.647Z,98702.17
2022-09-28T20:46:53.633Z,98701.47
2022-09-28T20:49:20.522Z,98695.97
2022-09-28T20:51:47.497Z,98694.48
2022-09-28T20:54:14.331Z,98693.27
2022-09-28T20:56:41.338Z,98697.77
2022-09-28T20:59:11.608Z,98695.90
2022-09-28T21:01:38.505Z,98698.52
2022-09-28T21:04:07.639Z,98703.77
2022-09-28T21:06:40.488Z,98702.24
2022-09-28T21:09:09.728Z,98701.08
2022-09-28T21:11:36.977Z,98701.41
2022-09-28T21:14:07.258Z,98703.50
2022-09-28T21:16:35.381Z,98703.48
2022-09-28T21:19:03.557Z,98701.75
2022-09-28T21:21:30.797Z,98704.20
2022-09-28T21:24:08.923Z,98711.02
2022-09-28T21:26:36.424Z,98710.70
2022-09-28T21:29:08.141Z,98706.86
2022-09-28T21:31:55.882Z,98707.90
2022-09-28T21:34:29.502Z,98703.16
2022-09-28T21:36:56.847Z,98706.20
2022-09-28T21:39:23.872Z,98709.83
2022-09-28T21:41:50.791Z,98705.70
2022-09-28T21:44:17.646Z,98704.80
2022-09-28T21:46:44.578Z,98698.05
2022-09-28T21:49:13.675Z,98697.62
2022-09-28T21:51:40.626Z,98703.00
2022-09-28T21:54:08.528Z,98711.72
2022-09-28T21:56:35.455Z,98715.80
2022-09-28T21:59:02.521Z,98720.39
2022-09-28T22:01:29.506Z,98720.95
2022-09-28T22:03:57.411Z,98716.33
2022-09-28T22:06:30.375Z,98718.09
2022-09-28T22:08:57.955Z,98719.70
2022-09-28T22:11:28.470Z,98723.15
2022-09-28T22:13:58.179Z,98727.80
2022-09-28T22:16:28.110Z,98733.41
2022-09-28T22:18:55.145Z,98731.48
2022-09-28T22:21:25.324Z,98735.89
2022-09-28T22:23:53.037Z,98744.20
2022-09-28T22:26:23.615Z,98745.75
2022-09-28T22:28:55.191Z,98747.46
2022-09-28T22:31:25.021Z,98748.17
2022-09-28T22:33:51.968Z,98749.21
2022-09-28T22:36:20.161Z,98746.09
2022-09-28T22:38:48.200Z,98745.64
2022-09-28T22:41:17.140Z,98744.20
2022-09-28T22:43:44.673Z,98747.30
2022-09-28T22:46:14.992Z,98744.64
2022-09-28T22:48:44.570Z,98738.98
2022-09-28T22:51:11.319Z,98746.17
2022-09-28T22:53:38.490Z,98749.97
2022-09-28T22:56:06.829Z,98748.80
2022-09-28T22:58:34.913Z,98752.58
2022-09-28T23:01:13.262Z,98752.64
2022-09-28T23:03:42.354Z,98746.35
2022-09-28T23:06:11.295Z,98742.05
2022-09-28T23:08:39.122Z,98744.80
2022-09-28T23:11:06.952Z,98746.73
2022-09-28T23:13:35.214Z,98749.67
2022-09-28T23:16:11.770Z,98751.52
2022-09-28T23:18:42.559Z,98748.54
2022-09-28T23:21:13.259Z,98752.59
2022-09-28T23:23:39.953Z,98754.73
2022-09-28T23:26:18.533Z,98760.09
2022-09-28T23:28:46.208Z,98763.17
2022-09-28T23:31:19.458Z,98769.38
2022-09-28T23:33:46.804Z,98762.40
2022-09-28T23:36:14.012Z,98751.85
2022-09-28T23:38:41.782Z,98754.27
2022-09-28T23:41:08.986Z,98763.14
2022-09-28T23:43:36.996Z,98770.13
2022-09-28T23:46:04.691Z,98773.70
2022-09-28T23:48:32.014Z,98778.53
2022-09-28T23:50:59.155Z,98781.00
2022-09-28T23:53:26.520Z,98787.02
2022-09-28T23:55:54.039Z,98785.94
2022-09-28T23:58:21.081Z,98785.12
